sensor_id;sensor_type;location;lat;lon;timestamp;temperature;humidity
52791;DHT22;41253;46.856;-71.574;2022-08-21T00:00:21;23.00;99.90
52791;DHT22;41253;46.856;-71.574;2022-08-21T00:02:51;22.90;99.90
52791;DHT22;41253;46.856;-71.574;2022-08-21T00:05:18;22.70;99.90
52791;DHT22;41253;46.856;-71.574;2022-08-21T00:07:45;22.70;99.90
52791;DHT22;41253;46.856;-71.574;2022-08-21T00:10:12;22.60;99.90
52791;DHT22;41253;46.856;-71.574;2022-08-21T00:12:39;22.50;99.90
52791;DHT22;41253;46.856;-71.574;2022-08-21T00:15:09;22.40;99.90
52791;DHT22;41253;46.856;-71.574;2022-08-21T00:17:36;22.30;99.90
52791;DHT22;41253;46.856;-71.574;2022-08-21T00:20:05;22.20;99.90
52791;DHT22;41253;46.856;-71.574;2022-08-21T00:22:35;22.00;99.90
52791;DHT22;41253;46.856;-71.574;2022-08-21T00:25:05;21.90;99.90
52791;DHT22;41253;46.856;-71.574;2022-08-21T00:27:32;21.80;99.90
52791;DHT22;41253;46.856;-71.574;2022-08-21T00:29:59;21.80;99.90
52791;DHT22;41253;46.856;-71.574;2022-08-21T00:32:27;21.70;99.90
52791;DHT22;41253;46.856;-71.574;2022-08-21T00:34:54;21.60;99.90
52791;DHT22;41253;46.856;-71.574;2022-08-21T00:37:21;21.60;99.90
52791;DHT22;41253;46.856;-71.574;2022-08-21T00:39:48;21.50;99.90
52791;DHT22;41253;46.856;-71.574;2022-08-21T00:42:14;21.50;99.90
52791;DHT22;41253;46.856;-71.574;2022-08-21T00:44:46;21.50;99.90
52791;DHT22;41253;46.856;-71.574;2022-08-21T00:47:13;21.40;99.90
52791;DHT22;41253;46.856;-71.574;2022-08-21T00:49:40;21.30;99.90
52791;DHT22;41253;46.856;-71.574;2022-08-21T00:52:13;21.20;99.90
52791;DHT22;41253;46.856;-71.574;2022-08-21T00:54:42;21.00;99.90
52791;DHT22;41253;46.856;-71.574;2022-08-21T00:57:19;20.90;99.90
52791;DHT22;41253;46.856;-71.574;2022-08-21T00:59:49;20.80;99.90
52791;DHT22;41253;46.856;-71.574;2022-08-21T01:02:18;20.80;99.90
52791;DHT22;41253;46.856;-71.574;2022-08-21T01:04:46;20.70;99.90
52791;DHT22;41253;46.856;-71.574;2022-08-21T01:07:13;20.70;99.90
52791;DHT22;41253;46.856;-71.574;2022-08-21T01:09:40;20.60;99.90
52791;DHT22;41253;46.856;-71.574;2022-08-21T01:12:35;20.50;99.90
52791;DHT22;41253;46.856;-71.574;2022-08-21T01:15:04;20.40;99.90
52791;DHT22;41253;46.856;-71.574;2022-08-21T01:17:31;20.40;99.90
52791;DHT22;41253;46.856;-71.574;2022-08-21T01:19:59;20.40;99.90
52791;DHT22;41253;46.856;-71.574;2022-08-21T01:22:26;20.30;99.90
52791;DHT22;41253;46.856;-71.574;2022-08-21T01:24:53;20.30;99.90
52791;DHT22;41253;46.856;-71.574;2022-08-21T01:27:22;20.30;99.90
52791;DHT22;41253;46.856;-71.574;2022-08-21T01:29:58;20.30;99.90
52791;DHT22;41253;46.856;-71.574;2022-08-21T01:32:26;20.20;99.90
52791;DHT22;41253;46.856;-71.574;2022-08-21T01:34:53;20.20;99.90
52791;DHT22;41253;46.856;-71.574;2022-08-21T01:37:21;20.20;99.90
52791;DHT22;41253;46.856;-71.574;2022-08-21T01:39:47;20.00;99.90
52791;DHT22;41253;46.856;-71.574;2022-08-21T01:42:15;20.00;99.90
52791;DHT22;41253;46.856;-71.574;2022-08-21T01:44:41;19.80;99.90
52791;DHT22;41253;46.856;-71.574;2022-08-21T01:47:11;19.70;99.90
52791;DHT22;41253;46.856;-71.574;2022-08-21T01:49:38;19.70;99.90
52791;DHT22;41253;46.856;-71.574;2022-08-21T01:52:06;19.70;99.90
52791;DHT22;41253;46.856;-71.574;2022-08-21T01:54:33;19.60;99.90
52791;DHT22;41253;46.856;-71.574;2022-08-21T01:57:00;19.60;99.90
52791;DHT22;41253;46.856;-71.574;2022-08-21T01:59:27;19.60;99.90
52791;DHT22;41253;46.856;-71.574;2022-08-21T02:01:54;19.60;99.90
52791;DHT22;41253;46.856;-71.574;2022-08-21T02:04:21;19.50;99.90
52791;DHT22;41253;46.856;-71.574;2022-08-21T02:06:49;19.50;99.90
52791;DHT22;41253;46.856;-71.574;2022-08-21T02:09:16;19.50;99.90
52791;DHT22;41253;46.856;-71.574;2022-08-21T02:11:43;19.50;99.90
52791;DHT22;41253;46.856;-71.574;2022-08-21T02:14:11;19.50;99.90
52791;DHT22;41253;46.856;-71.574;2022-08-21T02:16:40;19.50;99.90
52791;DHT22;41253;46.856;-71.574;2022-08-21T02:19:07;19.60;99.90
52791;DHT22;41253;46.856;-71.574;2022-08-21T02:21:33;19.60;99.90
52791;DHT22;41253;46.856;-71.574;2022-08-21T02:24:00;19.40;99.90
52791;DHT22;41253;46.856;-71.574;2022-08-21T02:26:27;19.30;99.90
52791;DHT22;41253;46.856;-71.574;2022-08-21T02:28:54;19.20;99.90
52791;DHT22;41253;46.856;-71.574;2022-08-21T02:31:20;19.20;99.90
52791;DHT22;41253;46.856;-71.574;2022-08-21T02:33:47;19.20;99.90
52791;DHT22;41253;46.856;-71.574;2022-08-21T02:36:14;19.20;99.90
52791;DHT22;41253;46.856;-71.574;2022-08-21T02:38:42;19.20;99.90
52791;DHT22;41253;46.856;-71.574;2022-08-21T02:41:12;19.20;99.90
52791;DHT22;41253;46.856;-71.574;2022-08-21T02:43:39;19.20;99.90
52791;DHT22;41253;46.856;-71.574;2022-08-21T02:46:07;19.20;99.90
52791;DHT22;41253;46.856;-71.574;2022-08-21T02:48:35;18.90;99.90
52791;DHT22;41253;46.856;-71.574;2022-08-21T02:51:11;18.80;99.90
52791;DHT22;41253;46.856;-71.574;2022-08-21T02:53:38;18.80;99.90
52791;DHT22;41253;46.856;-71.574;2022-08-21T02:56:08;18.80;99.90
52791;DHT22;41253;46.856;-71.574;2022-08-21T02:58:38;18.70;99.90
52791;DHT22;41253;46.856;-71.574;2022-08-21T03:01:06;18.70;99.90
52791;DHT22;41253;46.856;-71.574;2022-08-21T03:03:37;18.80;99.90
52791;DHT22;41253;46.856;-71.574;2022-08-21T03:06:05;18.70;99.90
52791;DHT22;41253;46.856;-71.574;2022-08-21T03:08:34;18.70;99.90
52791;DHT22;41253;46.856;-71.574;2022-08-21T03:11:01;18.60;99.90
52791;DHT22;41253;46.856;-71.574;2022-08-21T03:13:28;18.70;99.90
52791;DHT22;41253;46.856;-71.574;2022-08-21T03:15:55;18.70;99.90
52791;DHT22;41253;46.856;-71.574;2022-08-21T03:18:21;18.60;99.90
52791;DHT22;41253;46.856;-71.574;2022-08-21T03:20:48;18.60;99.90
52791;DHT22;41253;46.856;-71.574;2022-08-21T03:23:16;18.40;99.90
52791;DHT22;41253;46.856;-71.574;2022-08-21T03:25:44;18.40;99.90
52791;DHT22;41253;46.856;-71.574;2022-08-21T03:28:16;18.40;99.90
52791;DHT22;41253;46.856;-71.574;2022-08-21T03:30:44;18.30;99.90
52791;DHT22;41253;46.856;-71.574;2022-08-21T03:33:12;18.20;99.90
52791;DHT22;41253;46.856;-71.574;2022-08-21T03:35:39;18.20;99.90
52791;DHT22;41253;46.856;-71.574;2022-08-21T03:38:07;18.20;99.90
52791;DHT22;41253;46.856;-71.574;2022-08-21T03:40:34;18.10;99.90
52791;DHT22;41253;46.856;-71.574;2022-08-21T03:43:00;18.00;99.90
52791;DHT22;41253;46.856;-71.574;2022-08-21T03:45:27;17.90;99.90
52791;DHT22;41253;46.856;-71.574;2022-08-21T03:47:58;17.90;99.90
52791;DHT22;41253;46.856;-71.574;2022-08-21T03:50:29;17.80;99.90
52791;DHT22;41253;46.856;-71.574;2022-08-21T03:52:56;17.80;99.90
52791;DHT22;41253;46.856;-71.574;2022-08-21T03:55:23;17.80;99.90
52791;DHT22;41253;46.856;-71.574;2022-08-21T03:57:50;18.00;99.90
52791;DHT22;41253;46.856;-71.574;2022-08-21T04:00:18;18.10;99.90
52791;DHT22;41253;46.856;-71.574;2022-08-21T04:02:45;18.10;99.90
52791;DHT22;41253;46.856;-71.574;2022-08-21T04:05:15;18.20;99.90
52791;DHT22;41253;46.856;-71.574;2022-08-21T04:08:01;18.10;99.90
52791;DHT22;41253;46.856;-71.574;2022-08-21T04:10:30;18.10;99.90
52791;DHT22;41253;46.856;-71.574;2022-08-21T04:12:57;18.10;99.90
52791;DHT22;41253;46.856;-71.574;2022-08-21T04:15:25;18.20;99.90
52791;DHT22;41253;46.856;-71.574;2022-08-21T04:17:51;18.20;99.90
52791;DHT22;41253;46.856;-71.574;2022-08-21T04:20:19;18.30;99.90
52791;DHT22;41253;46.856;-71.574;2022-08-21T04:22:47;18.30;99.90
52791;DHT22;41253;46.856;-71.574;2022-08-21T04:25:14;18.20;99.90
52791;DHT22;41253;46.856;-71.574;2022-08-21T04:27:41;18.10;99.90
52791;DHT22;41253;46.856;-71.574;2022-08-21T04:30:09;17.90;99.90
52791;DHT22;41253;46.856;-71.574;2022-08-21T04:32:37;17.90;99.90
52791;DHT22;41253;46.856;-71.574;2022-08-21T04:35:08;17.90;99.90
52791;DHT22;41253;46.856;-71.574;2022-08-21T04:37:35;17.80;99.90
52791;DHT22;41253;46.856;-71.574;2022-08-21T04:40:02;17.90;99.90
52791;DHT22;41253;46.856;-71.574;2022-08-21T04:42:29;17.90;99.90
52791;DHT22;41253;46.856;-71.574;2022-08-21T04:44:56;18.00;99.90
52791;DHT22;41253;46.856;-71.574;2022-08-21T04:47:24;17.60;99.90
52791;DHT22;41253;46.856;-71.574;2022-08-21T04:49:51;17.60;99.90
52791;DHT22;41253;46.856;-71.574;2022-08-21T04:52:19;17.70;99.90
52791;DHT22;41253;46.856;-71.574;2022-08-21T04:54:47;17.80;99.90
52791;DHT22;41253;46.856;-71.574;2022-08-21T04:57:15;18.20;99.90
52791;DHT22;41253;46.856;-71.574;2022-08-21T04:59:48;18.20;99.90
52791;DHT22;41253;46.856;-71.574;2022-08-21T05:02:16;18.10;99.90
52791;DHT22;41253;46.856;-71.574;2022-08-21T05:04:46;18.10;99.90
52791;DHT22;41253;46.856;-71.574;2022-08-21T05:07:19;18.10;99.90
52791;DHT22;41253;46.856;-71.574;2022-08-21T05:09:46;18.00;99.90
52791;DHT22;41253;46.856;-71.574;2022-08-21T05:12:13;18.10;99.90
52791;DHT22;41253;46.856;-71.574;2022-08-21T05:14:40;18.00;99.90
52791;DHT22;41253;46.856;-71.574;2022-08-21T05:17:09;18.00;99.90
52791;DHT22;41253;46.856;-71.574;2022-08-21T05:19:36;17.80;99.90
52791;DHT22;41253;46.856;-71.574;2022-08-21T05:22:03;17.70;99.90
52791;DHT22;41253;46.856;-71.574;2022-08-21T05:24:29;17.70;99.90
52791;DHT22;41253;46.856;-71.574;2022-08-21T05:26:55;17.70;99.90
52791;DHT22;41253;46.856;-71.574;2022-08-21T05:29:22;17.60;99.90
52791;DHT22;41253;46.856;-71.574;2022-08-21T05:31:48;17.60;99.90
52791;DHT22;41253;46.856;-71.574;2022-08-21T05:34:19;17.60;99.90
52791;DHT22;41253;46.856;-71.574;2022-08-21T05:36:46;17.60;99.90
52791;DHT22;41253;46.856;-71.574;2022-08-21T05:39:13;24.10;99.90
52791;DHT22;41253;46.856;-71.574;2022-08-21T05:41:39;24.10;99.90
52791;DHT22;41253;46.856;-71.574;2022-08-21T05:44:05;24.10;99.90
52791;DHT22;41253;46.856;-71.574;2022-08-21T05:46:32;24.10;99.90
52791;DHT22;41253;46.856;-71.574;2022-08-21T05:48:58;24.00;99.90
52791;DHT22;41253;46.856;-71.574;2022-08-21T05:51:25;23.90;99.90
52791;DHT22;41253;46.856;-71.574;2022-08-21T05:53:51;23.90;99.90
52791;DHT22;41253;46.856;-71.574;2022-08-21T05:56:17;24.00;99.90
52791;DHT22;41253;46.856;-71.574;2022-08-21T05:58:44;24.10;99.90
52791;DHT22;41253;46.856;-71.574;2022-08-21T06:01:10;24.00;99.90
52791;DHT22;41253;46.856;-71.574;2022-08-21T06:03:41;24.00;99.90
52791;DHT22;41253;46.856;-71.574;2022-08-21T06:06:08;24.00;99.90
52791;DHT22;41253;46.856;-71.574;2022-08-21T06:08:36;23.90;99.90
52791;DHT22;41253;46.856;-71.574;2022-08-21T06:11:03;23.90;99.90
52791;DHT22;41253;46.856;-71.574;2022-08-21T06:13:30;23.90;99.90
52791;DHT22;41253;46.856;-71.574;2022-08-21T06:16:14;24.00;99.90
52791;DHT22;41253;46.856;-71.574;2022-08-21T06:18:41;24.00;99.90
52791;DHT22;41253;46.856;-71.574;2022-08-21T06:21:08;24.00;99.90
52791;DHT22;41253;46.856;-71.574;2022-08-21T06:23:35;23.90;99.90
52791;DHT22;41253;46.856;-71.574;2022-08-21T06:26:02;23.90;99.90
52791;DHT22;41253;46.856;-71.574;2022-08-21T06:28:30;23.90;99.90
52791;DHT22;41253;46.856;-71.574;2022-08-21T06:30:57;23.80;99.90
52791;DHT22;41253;46.856;-71.574;2022-08-21T06:33:24;23.90;99.90
52791;DHT22;41253;46.856;-71.574;2022-08-21T06:35:51;24.00;99.90
52791;DHT22;41253;46.856;-71.574;2022-08-21T06:38:17;24.10;99.90
52791;DHT22;41253;46.856;-71.574;2022-08-21T06:40:43;24.30;99.90
52791;DHT22;41253;46.856;-71.574;2022-08-21T06:43:15;24.30;99.90
52791;DHT22;41253;46.856;-71.574;2022-08-21T06:45:43;24.40;99.90
52791;DHT22;41253;46.856;-71.574;2022-08-21T06:48:09;24.40;99.90
52791;DHT22;41253;46.856;-71.574;2022-08-21T06:50:36;24.50;99.90
52791;DHT22;41253;46.856;-71.574;2022-08-21T06:53:12;24.50;99.90
52791;DHT22;41253;46.856;-71.574;2022-08-21T06:55:39;24.50;99.90
52791;DHT22;41253;46.856;-71.574;2022-08-21T06:58:06;24.50;99.90
52791;DHT22;41253;46.856;-71.574;2022-08-21T07:00:34;24.50;99.90
52791;DHT22;41253;46.856;-71.574;2022-08-21T07:03:01;24.40;99.90
52791;DHT22;41253;46.856;-71.574;2022-08-21T07:05:29;24.40;99.90
52791;DHT22;41253;46.856;-71.574;2022-08-21T07:07:56;24.40;99.90
52791;DHT22;41253;46.856;-71.574;2022-08-21T07:10:24;24.30;99.90
52791;DHT22;41253;46.856;-71.574;2022-08-21T07:12:51;24.30;99.90
52791;DHT22;41253;46.856;-71.574;2022-08-21T07:15:18;24.30;99.90
52791;DHT22;41253;46.856;-71.574;2022-08-21T07:17:44;24.30;99.90
52791;DHT22;41253;46.856;-71.574;2022-08-21T07:20:11;24.40;99.90
52791;DHT22;41253;46.856;-71.574;2022-08-21T07:22:38;24.30;99.90
52791;DHT22;41253;46.856;-71.574;2022-08-21T07:25:05;24.20;99.90
52791;DHT22;41253;46.856;-71.574;2022-08-21T07:27:32;24.20;99.90
52791;DHT22;41253;46.856;-71.574;2022-08-21T07:29:59;24.20;99.90
52791;DHT22;41253;46.856;-71.574;2022-08-21T07:32:26;24.10;99.90
52791;DHT22;41253;46.856;-71.574;2022-08-21T07:34:52;24.10;99.90
52791;DHT22;41253;46.856;-71.574;2022-08-21T07:37:18;24.00;99.90
52791;DHT22;41253;46.856;-71.574;2022-08-21T07:39:45;23.90;99.90
52791;DHT22;41253;46.856;-71.574;2022-08-21T07:42:15;23.90;99.90
52791;DHT22;41253;46.856;-71.574;2022-08-21T07:44:41;24.00;99.90
52791;DHT22;41253;46.856;-71.574;2022-08-21T07:47:09;24.00;99.90
52791;DHT22;41253;46.856;-71.574;2022-08-21T07:49:35;24.00;99.90
52791;DHT22;41253;46.856;-71.574;2022-08-21T07:52:01;23.90;99.90
52791;DHT22;41253;46.856;-71.574;2022-08-21T07:54:28;23.90;99.90
52791;DHT22;41253;46.856;-71.574;2022-08-21T07:56:54;23.90;99.90
52791;DHT22;41253;46.856;-71.574;2022-08-21T07:59:21;23.80;99.90
52791;DHT22;41253;46.856;-71.574;2022-08-21T08:01:47;23.90;99.90
52791;DHT22;41253;46.856;-71.574;2022-08-21T08:04:13;23.80;99.90
52791;DHT22;41253;46.856;-71.574;2022-08-21T08:06:41;23.90;99.90
52791;DHT22;41253;46.856;-71.574;2022-08-21T08:09:08;23.70;99.90
52791;DHT22;41253;46.856;-71.574;2022-08-21T08:11:35;23.70;99.90
52791;DHT22;41253;46.856;-71.574;2022-08-21T08:14:03;23.70;99.90
52791;DHT22;41253;46.856;-71.574;2022-08-21T08:16:29;23.70;99.90
52791;DHT22;41253;46.856;-71.574;2022-08-21T08:18:56;23.70;99.90
52791;DHT22;41253;46.856;-71.574;2022-08-21T08:21:22;23.70;99.90
52791;DHT22;41253;46.856;-71.574;2022-08-21T08:23:49;23.80;99.90
52791;DHT22;41253;46.856;-71.574;2022-08-21T08:26:15;23.70;99.90
52791;DHT22;41253;46.856;-71.574;2022-08-21T08:28:42;23.70;99.90
52791;DHT22;41253;46.856;-71.574;2022-08-21T08:31:08;23.70;99.90
52791;DHT22;41253;46.856;-71.574;2022-08-21T08:33:35;23.60;99.90
52791;DHT22;41253;46.856;-71.574;2022-08-21T08:36:02;23.60;99.90
52791;DHT22;41253;46.856;-71.574;2022-08-21T08:38:29;23.50;99.90
52791;DHT22;41253;46.856;-71.574;2022-08-21T08:41:12;23.60;99.90
52791;DHT22;41253;46.856;-71.574;2022-08-21T08:43:40;23.60;99.90
52791;DHT22;41253;46.856;-71.574;2022-08-21T08:46:14;23.70;99.90
52791;DHT22;41253;46.856;-71.574;2022-08-21T08:48:58;23.80;99.90
52791;DHT22;41253;46.856;-71.574;2022-08-21T08:52:00;23.80;99.90
52791;DHT22;41253;46.856;-71.574;2022-08-21T08:54:46;23.80;99.90
52791;DHT22;41253;46.856;-71.574;2022-08-21T08:57:19;23.70;99.90
52791;DHT22;41253;46.856;-71.574;2022-08-21T08:59:48;23.70;99.90
52791;DHT22;41253;46.856;-71.574;2022-08-21T09:02:16;23.60;99.90
52791;DHT22;41253;46.856;-71.574;2022-08-21T09:04:45;23.60;99.90
52791;DHT22;41253;46.856;-71.574;2022-08-21T09:10:17;23.70;99.90
52791;DHT22;41253;46.856;-71.574;2022-08-21T09:15:46;23.80;99.90
52791;DHT22;41253;46.856;-71.574;2022-08-21T09:18:21;23.80;99.90
52791;DHT22;41253;46.856;-71.574;2022-08-21T09:21:26;23.80;99.90
52791;DHT22;41253;46.856;-71.574;2022-08-21T09:27:11;23.90;99.90
52791;DHT22;41253;46.856;-71.574;2022-08-21T09:29:40;24.00;99.90
52791;DHT22;41253;46.856;-71.574;2022-08-21T09:32:16;24.00;99.90
52791;DHT22;41253;46.856;-71.574;2022-08-21T09:37:27;24.00;99.90
52791;DHT22;41253;46.856;-71.574;2022-08-21T09:39:55;24.00;99.90
52791;DHT22;41253;46.856;-71.574;2022-08-21T09:42:30;24.00;99.90
52791;DHT22;41253;46.856;-71.574;2022-08-21T09:45:12;24.00;99.90
52791;DHT22;41253;46.856;-71.574;2022-08-21T09:47:40;24.00;99.90
52791;DHT22;41253;46.856;-71.574;2022-08-21T09:52:44;24.00;99.90
52791;DHT22;41253;46.856;-71.574;2022-08-21T09:56:16;24.00;99.90
52791;DHT22;41253;46.856;-71.574;2022-08-21T09:58:52;24.00;99.90
52791;DHT22;41253;46.856;-71.574;2022-08-21T10:01:22;24.00;99.90
52791;DHT22;41253;46.856;-71.574;2022-08-21T10:04:01;24.00;99.90
52791;DHT22;41253;46.856;-71.574;2022-08-21T10:06:29;24.00;99.90
52791;DHT22;41253;46.856;-71.574;2022-08-21T10:09:16;24.00;99.90
52791;DHT22;41253;46.856;-71.574;2022-08-21T10:20:08;23.90;99.90
52791;DHT22;41253;46.856;-71.574;2022-08-21T10:22:42;23.90;99.90
52791;DHT22;41253;46.856;-71.574;2022-08-21T10:25:23;23.90;99.90
52791;DHT22;41253;46.856;-71.574;2022-08-21T10:28:27;24.00;99.90
52791;DHT22;41253;46.856;-71.574;2022-08-21T10:36:17;24.00;99.90
52791;DHT22;41253;46.856;-71.574;2022-08-21T10:41:54;24.10;99.90
52791;DHT22;41253;46.856;-71.574;2022-08-21T10:47:43;24.10;99.90
52791;DHT22;41253;46.856;-71.574;2022-08-21T10:50:34;24.20;99.90
52791;DHT22;41253;46.856;-71.574;2022-08-21T10:53:18;24.20;99.90
52791;DHT22;41253;46.856;-71.574;2022-08-21T10:55:55;21.80;99.90
52791;DHT22;41253;46.856;-71.574;2022-08-21T10:58:48;21.60;99.90
52791;DHT22;41253;46.856;-71.574;2022-08-21T11:04:37;21.40;99.90
52791;DHT22;41253;46.856;-71.574;2022-08-21T11:07:12;21.30;99.90
52791;DHT22;41253;46.856;-71.574;2022-08-21T11:09:43;21.30;99.90
52791;DHT22;41253;46.856;-71.574;2022-08-21T11:13:08;21.30;99.90
52791;DHT22;41253;46.856;-71.574;2022-08-21T11:18:34;21.30;99.90
52791;DHT22;41253;46.856;-71.574;2022-08-21T11:21:20;21.30;99.90
52791;DHT22;41253;46.856;-71.574;2022-08-21T11:26:47;21.50;99.90
52791;DHT22;41253;46.856;-71.574;2022-08-21T11:29:36;21.50;99.90
52791;DHT22;41253;46.856;-71.574;2022-08-21T11:32:37;21.60;99.90
52791;DHT22;41253;46.856;-71.574;2022-08-21T11:35:32;21.70;99.90
52791;DHT22;41253;46.856;-71.574;2022-08-21T11:44:13;22.10;99.90
52791;DHT22;41253;46.856;-71.574;2022-08-21T11:46:49;22.10;99.90
52791;DHT22;41253;46.856;-71.574;2022-08-21T11:55:00;23.10;99.90
52791;DHT22;41253;46.856;-71.574;2022-08-21T11:57:35;23.20;99.90
52791;DHT22;41253;46.856;-71.574;2022-08-21T12:00:36;23.10;99.90
52791;DHT22;41253;46.856;-71.574;2022-08-21T12:03:28;23.20;99.90
52791;DHT22;41253;46.856;-71.574;2022-08-21T12:06:05;22.90;99.90
52791;DHT22;41253;46.856;-71.574;2022-08-21T12:08:43;23.10;99.90
52791;DHT22;41253;46.856;-71.574;2022-08-21T12:14:16;23.00;99.90
52791;DHT22;41253;46.856;-71.574;2022-08-21T12:16:44;22.80;99.90
52791;DHT22;41253;46.856;-71.574;2022-08-21T12:19:29;22.70;99.90
52791;DHT22;41253;46.856;-71.574;2022-08-21T12:22:14;22.60;99.90
52791;DHT22;41253;46.856;-71.574;2022-08-21T12:24:43;22.80;99.90
52791;DHT22;41253;46.856;-71.574;2022-08-21T12:30:04;22.80;99.90
52791;DHT22;41253;46.856;-71.574;2022-08-21T12:32:45;22.70;99.90
52791;DHT22;41253;46.856;-71.574;2022-08-21T12:35:25;22.60;99.90
52791;DHT22;41253;46.856;-71.574;2022-08-21T12:38:18;22.80;99.90
52791;DHT22;41253;46.856;-71.574;2022-08-21T12:43:40;23.40;99.90
52791;DHT22;41253;46.856;-71.574;2022-08-21T12:46:04;23.30;99.90
52791;DHT22;41253;46.856;-71.574;2022-08-21T12:51:16;23.70;99.90
52791;DHT22;41253;46.856;-71.574;2022-08-21T12:56:16;24.00;99.90
52791;DHT22;41253;46.856;-71.574;2022-08-21T12:58:48;24.20;99.90
52791;DHT22;41253;46.856;-71.574;2022-08-21T13:01:34;24.40;99.90
52791;DHT22;41253;46.856;-71.574;2022-08-21T13:04:06;24.40;99.90
52791;DHT22;41253;46.856;-71.574;2022-08-21T13:06:45;24.70;99.90
52791;DHT22;41253;46.856;-71.574;2022-08-21T13:09:15;25.00;99.90
52791;DHT22;41253;46.856;-71.574;2022-08-21T13:11:45;24.70;99.90
52791;DHT22;41253;46.856;-71.574;2022-08-21T13:14:39;25.00;99.90
52791;DHT22;41253;46.856;-71.574;2022-08-21T13:17:05;24.90;99.90
52791;DHT22;41253;46.856;-71.574;2022-08-21T13:19:33;24.70;99.90
52791;DHT22;41253;46.856;-71.574;2022-08-21T13:22:01;25.20;99.90
52791;DHT22;41253;46.856;-71.574;2022-08-21T13:24:34;25.10;99.90
52791;DHT22;41253;46.856;-71.574;2022-08-21T13:27:01;25.30;99.90
52791;DHT22;41253;46.856;-71.574;2022-08-21T13:29:31;25.20;99.90
52791;DHT22;41253;46.856;-71.574;2022-08-21T13:32:00;25.00;99.90
52791;DHT22;41253;46.856;-71.574;2022-08-21T13:34:33;24.70;99.90
52791;DHT22;41253;46.856;-71.574;2022-08-21T13:37:05;24.80;99.90
52791;DHT22;41253;46.856;-71.574;2022-08-21T13:39:32;25.00;99.90
52791;DHT22;41253;46.856;-71.574;2022-08-21T13:42:02;25.00;99.90
52791;DHT22;41253;46.856;-71.574;2022-08-21T13:44:46;25.20;99.90
52791;DHT22;41253;46.856;-71.574;2022-08-21T13:47:15;25.60;99.90
52791;DHT22;41253;46.856;-71.574;2022-08-21T13:49:50;25.40;99.90
52791;DHT22;41253;46.856;-71.574;2022-08-21T13:52:21;25.40;99.90
52791;DHT22;41253;46.856;-71.574;2022-08-21T13:54:57;25.20;99.90
52791;DHT22;41253;46.856;-71.574;2022-08-21T13:57:28;25.30;99.90
52791;DHT22;41253;46.856;-71.574;2022-08-21T14:02:46;26.20;99.90
52791;DHT22;41253;46.856;-71.574;2022-08-21T14:05:29;26.30;99.90
52791;DHT22;41253;46.856;-71.574;2022-08-21T14:08:12;26.70;99.90
52791;DHT22;41253;46.856;-71.574;2022-08-21T14:10:44;27.20;99.90
52791;DHT22;41253;46.856;-71.574;2022-08-21T14:13:40;27.20;99.90
52791;DHT22;41253;46.856;-71.574;2022-08-21T14:16:20;27.50;99.90
52791;DHT22;41253;46.856;-71.574;2022-08-21T14:21:40;27.90;99.90
52791;DHT22;41253;46.856;-71.574;2022-08-21T14:24:29;28.20;99.90
52791;DHT22;41253;46.856;-71.574;2022-08-21T14:27:04;28.50;99.90
52791;DHT22;41253;46.856;-71.574;2022-08-21T14:29:38;28.70;99.90
52791;DHT22;41253;46.856;-71.574;2022-08-21T14:32:18;28.20;99.90
52791;DHT22;41253;46.856;-71.574;2022-08-21T14:34:45;28.10;99.90
52791;DHT22;41253;46.856;-71.574;2022-08-21T14:37:12;28.40;99.90
52791;DHT22;41253;46.856;-71.574;2022-08-21T14:39:38;28.50;99.90
52791;DHT22;41253;46.856;-71.574;2022-08-21T14:42:05;28.40;99.90
52791;DHT22;41253;46.856;-71.574;2022-08-21T14:44:31;27.80;99.90
52791;DHT22;41253;46.856;-71.574;2022-08-21T14:46:58;27.70;99.90
52791;DHT22;41253;46.856;-71.574;2022-08-21T14:49:27;27.90;99.90
52791;DHT22;41253;46.856;-71.574;2022-08-21T14:51:56;27.90;99.90
52791;DHT22;41253;46.856;-71.574;2022-08-21T14:54:28;28.40;99.90
52791;DHT22;41253;46.856;-71.574;2022-08-21T14:56:54;28.30;99.90
52791;DHT22;41253;46.856;-71.574;2022-08-21T14:59:21;28.00;99.90
52791;DHT22;41253;46.856;-71.574;2022-08-21T15:01:49;28.10;99.90
52791;DHT22;41253;46.856;-71.574;2022-08-21T15:04:15;28.40;99.90
52791;DHT22;41253;46.856;-71.574;2022-08-21T15:06:42;28.60;99.90
52791;DHT22;41253;46.856;-71.574;2022-08-21T15:09:08;28.50;99.90
52791;DHT22;41253;46.856;-71.574;2022-08-21T15:11:35;28.70;99.90
52791;DHT22;41253;46.856;-71.574;2022-08-21T15:14:03;28.50;99.90
52791;DHT22;41253;46.856;-71.574;2022-08-21T15:16:33;28.20;99.90
52791;DHT22;41253;46.856;-71.574;2022-08-21T15:19:00;28.40;99.90
52791;DHT22;41253;46.856;-71.574;2022-08-21T15:21:26;28.80;99.90
52791;DHT22;41253;46.856;-71.574;2022-08-21T15:23:53;29.30;99.90
52791;DHT22;41253;46.856;-71.574;2022-08-21T15:26:21;29.20;99.90
52791;DHT22;41253;46.856;-71.574;2022-08-21T15:28:48;29.60;99.90
52791;DHT22;41253;46.856;-71.574;2022-08-21T15:31:14;29.50;99.90
52791;DHT22;41253;46.856;-71.574;2022-08-21T15:33:41;29.00;99.90
52791;DHT22;41253;46.856;-71.574;2022-08-21T15:36:07;28.80;99.90
52791;DHT22;41253;46.856;-71.574;2022-08-21T15:38:33;28.80;99.90
52791;DHT22;41253;46.856;-71.574;2022-08-21T15:41:02;28.50;99.90
52791;DHT22;41253;46.856;-71.574;2022-08-21T15:43:37;28.50;99.90
52791;DHT22;41253;46.856;-71.574;2022-08-21T15:46:09;28.40;99.90
52791;DHT22;41253;46.856;-71.574;2022-08-21T15:48:36;28.20;99.90
52791;DHT22;41253;46.856;-71.574;2022-08-21T15:51:03;28.20;99.90
52791;DHT22;41253;46.856;-71.574;2022-08-21T15:53:29;28.10;99.90
52791;DHT22;41253;46.856;-71.574;2022-08-21T15:56:00;27.90;99.90
52791;DHT22;41253;46.856;-71.574;2022-08-21T15:58:27;27.90;99.90
52791;DHT22;41253;46.856;-71.574;2022-08-21T16:00:54;27.90;99.90
52791;DHT22;41253;46.856;-71.574;2022-08-21T16:03:21;28.00;99.90
52791;DHT22;41253;46.856;-71.574;2022-08-21T16:05:48;28.30;99.90
52791;DHT22;41253;46.856;-71.574;2022-08-21T16:08:18;28.40;99.90
52791;DHT22;41253;46.856;-71.574;2022-08-21T16:10:45;28.30;99.90
52791;DHT22;41253;46.856;-71.574;2022-08-21T16:13:22;28.40;99.90
52791;DHT22;41253;46.856;-71.574;2022-08-21T16:15:49;28.30;99.90
52791;DHT22;41253;46.856;-71.574;2022-08-21T16:18:17;28.40;99.90
52791;DHT22;41253;46.856;-71.574;2022-08-21T16:20:44;28.50;99.90
52791;DHT22;41253;46.856;-71.574;2022-08-21T16:23:10;28.00;99.90
52791;DHT22;41253;46.856;-71.574;2022-08-21T16:25:38;28.30;99.90
52791;DHT22;41253;46.856;-71.574;2022-08-21T16:28:07;28.60;99.90
52791;DHT22;41253;46.856;-71.574;2022-08-21T16:30:34;28.90;99.90
52791;DHT22;41253;46.856;-71.574;2022-08-21T16:33:01;29.10;99.90
52791;DHT22;41253;46.856;-71.574;2022-08-21T16:35:29;29.00;99.90
52791;DHT22;41253;46.856;-71.574;2022-08-21T16:37:56;28.60;99.90